sensor_id;sensor_type;location;lat;lon;timestamp;P1;durP1;ratioP1;P2;durP2;ratioP2
6259;SDS011;3163;51.516;4.000;2024-02-21T00:00:37;2.07;;;0.90;;
6259;SDS011;3163;51.516;4.000;2024-02-21T00:03:04;3.63;;;1.10;;
6259;SDS011;3163;51.516;4.000;2024-02-21T00:05:30;2.03;;;1.13;;
6259;SDS011;3163;51.516;4.000;2024-02-21T00:07:58;2.07;;;0.57;;
6259;SDS011;3163;51.516;4.000;2024-02-21T00:10:24;1.20;;;0.83;;
6259;SDS011;3163;51.516;4.000;2024-02-21T00:12:51;1.00;;;0.90;;
6259;SDS011;3163;51.516;4.000;2024-02-21T00:15:17;0.77;;;0.57;;
6259;SDS011;3163;51.516;4.000;2024-02-21T00:17:43;1.27;;;1.07;;
6259;SDS011;3163;51.516;4.000;2024-02-21T00:20:10;0.23;;;0.23;;
6259;SDS011;3163;51.516;4.000;2024-02-21T00:22:36;0.73;;;0.60;;
6259;SDS011;3163;51.516;4.000;2024-02-21T00:25:03;0.80;;;0.70;;
6259;SDS011;3163;51.516;4.000;2024-02-21T00:27:29;0.90;;;0.90;;
6259;SDS011;3163;51.516;4.000;2024-02-21T00:29:55;2.87;;;0.73;;
6259;SDS011;3163;51.516;4.000;2024-02-21T00:32:20;2.80;;;0.93;;
6259;SDS011;3163;51.516;4.000;2024-02-21T00:34:48;2.50;;;0.70;;
6259;SDS011;3163;51.516;4.000;2024-02-21T00:37:13;1.07;;;0.77;;
6259;SDS011;3163;51.516;4.000;2024-02-21T00:39:39;1.00;;;0.77;;
6259;SDS011;3163;51.516;4.000;2024-02-21T00:42:07;2.07;;;1.00;;
6259;SDS011;3163;51.516;4.000;2024-02-21T00:44:33;2.90;;;0.57;;
6259;SDS011;3163;51.516;4.000;2024-02-21T00:46:59;1.87;;;0.93;;
6259;SDS011;3163;51.516;4.000;2024-02-21T00:49:25;2.53;;;1.17;;
6259;SDS011;3163;51.516;4.000;2024-02-21T00:51:51;1.00;;;0.90;;
6259;SDS011;3163;51.516;4.000;2024-02-21T00:54:17;1.40;;;1.27;;
6259;SDS011;3163;51.516;4.000;2024-02-21T00:56:43;5.13;;;1.20;;
6259;SDS011;3163;51.516;4.000;2024-02-21T00:59:09;1.40;;;0.87;;
6259;SDS011;3163;51.516;4.000;2024-02-21T01:01:35;1.97;;;0.90;;
6259;SDS011;3163;51.516;4.000;2024-02-21T01:04:01;3.03;;;1.20;;
6259;SDS011;3163;51.516;4.000;2024-02-21T01:06:27;1.70;;;0.70;;
6259;SDS011;3163;51.516;4.000;2024-02-21T01:08:53;1.80;;;0.60;;
6259;SDS011;3163;51.516;4.000;2024-02-21T01:11:19;2.37;;;1.00;;
6259;SDS011;3163;51.516;4.000;2024-02-21T01:13:45;0.97;;;0.70;;
6259;SDS011;3163;51.516;4.000;2024-02-21T01:16:12;2.03;;;0.77;;
6259;SDS011;3163;51.516;4.000;2024-02-21T01:18:38;2.00;;;1.00;;
6259;SDS011;3163;51.516;4.000;2024-02-21T01:21:07;1.63;;;0.90;;
6259;SDS011;3163;51.516;4.000;2024-02-21T01:23:35;0.93;;;0.50;;
6259;SDS011;3163;51.516;4.000;2024-02-21T01:26:01;0.80;;;0.63;;
6259;SDS011;3163;51.516;4.000;2024-02-21T01:28:27;1.23;;;1.13;;
6259;SDS011;3163;51.516;4.000;2024-02-21T01:30:53;1.50;;;0.80;;
6259;SDS011;3163;51.516;4.000;2024-02-21T01:33:19;1.20;;;1.10;;
6259;SDS011;3163;51.516;4.000;2024-02-21T01:35:45;0.93;;;0.70;;
6259;SDS011;3163;51.516;4.000;2024-02-21T01:38:12;0.80;;;0.80;;
6259;SDS011;3163;51.516;4.000;2024-02-21T01:40:38;1.70;;;0.60;;
6259;SDS011;3163;51.516;4.000;2024-02-21T01:43:14;0.83;;;0.70;;
6259;SDS011;3163;51.516;4.000;2024-02-21T01:45:40;0.73;;;0.73;;
6259;SDS011;3163;51.516;4.000;2024-02-21T01:48:06;0.67;;;0.67;;
6259;SDS011;3163;51.516;4.000;2024-02-21T01:50:33;2.30;;;0.80;;
6259;SDS011;3163;51.516;4.000;2024-02-21T01:52:59;1.67;;;0.70;;
6259;SDS011;3163;51.516;4.000;2024-02-21T01:55:25;1.20;;;0.90;;
6259;SDS011;3163;51.516;4.000;2024-02-21T01:57:51;1.67;;;1.00;;
6259;SDS011;3163;51.516;4.000;2024-02-21T02:00:17;2.50;;;1.07;;
6259;SDS011;3163;51.516;4.000;2024-02-21T02:02:43;0.77;;;0.70;;
6259;SDS011;3163;51.516;4.000;2024-02-21T02:05:09;2.83;;;1.07;;
6259;SDS011;3163;51.516;4.000;2024-02-21T02:07:36;1.37;;;0.90;;
6259;SDS011;3163;51.516;4.000;2024-02-21T02:10:02;1.40;;;0.83;;
6259;SDS011;3163;51.516;4.000;2024-02-21T02:12:28;1.47;;;0.80;;
6259;SDS011;3163;51.516;4.000;2024-02-21T02:14:58;1.10;;;0.90;;
6259;SDS011;3163;51.516;4.000;2024-02-21T02:17:24;1.23;;;0.67;;
6259;SDS011;3163;51.516;4.000;2024-02-21T02:19:50;1.03;;;1.00;;
6259;SDS011;3163;51.516;4.000;2024-02-21T02:22:17;0.73;;;0.63;;
6259;SDS011;3163;51.516;4.000;2024-02-21T02:24:45;1.30;;;0.70;;
6259;SDS011;3163;51.516;4.000;2024-02-21T02:27:11;1.20;;;0.63;;
6259;SDS011;3163;51.516;4.000;2024-02-21T02:29:37;0.53;;;0.53;;
6259;SDS011;3163;51.516;4.000;2024-02-21T02:32:03;2.30;;;1.30;;
6259;SDS011;3163;51.516;4.000;2024-02-21T02:34:29;0.63;;;0.63;;
6259;SDS011;3163;51.516;4.000;2024-02-21T02:36:55;0.80;;;0.80;;
6259;SDS011;3163;51.516;4.000;2024-02-21T02:39:21;2.13;;;1.77;;
6259;SDS011;3163;51.516;4.000;2024-02-21T02:41:47;2.17;;;0.87;;
6259;SDS011;3163;51.516;4.000;2024-02-21T02:44:13;1.73;;;0.93;;
6259;SDS011;3163;51.516;4.000;2024-02-21T02:46:40;0.70;;;0.70;;
6259;SDS011;3163;51.516;4.000;2024-02-21T02:49:06;2.57;;;1.30;;
6259;SDS011;3163;51.516;4.000;2024-02-21T02:51:32;1.90;;;0.80;;
6259;SDS011;3163;51.516;4.000;2024-02-21T02:53:58;2.37;;;1.00;;
6259;SDS011;3163;51.516;4.000;2024-02-21T02:56:24;1.23;;;1.00;;
6259;SDS011;3163;51.516;4.000;2024-02-21T02:58:50;1.20;;;1.10;;
6259;SDS011;3163;51.516;4.000;2024-02-21T03:01:16;1.53;;;1.20;;
6259;SDS011;3163;51.516;4.000;2024-02-21T03:03:42;1.47;;;1.37;;
6259;SDS011;3163;51.516;4.000;2024-02-21T03:06:10;4.43;;;1.07;;
6259;SDS011;3163;51.516;4.000;2024-02-21T03:08:36;1.30;;;0.83;;
6259;SDS011;3163;51.516;4.000;2024-02-21T03:11:02;2.30;;;1.30;;
6259;SDS011;3163;51.516;4.000;2024-02-21T03:13:28;2.10;;;1.57;;
6259;SDS011;3163;51.516;4.000;2024-02-21T03:15:54;1.20;;;1.10;;
6259;SDS011;3163;51.516;4.000;2024-02-21T03:18:20;5.70;;;1.50;;
6259;SDS011;3163;51.516;4.000;2024-02-21T03:20:46;1.67;;;1.23;;
6259;SDS011;3163;51.516;4.000;2024-02-21T03:23:12;4.27;;;1.00;;
6259;SDS011;3163;51.516;4.000;2024-02-21T03:25:38;1.73;;;1.20;;
6259;SDS011;3163;51.516;4.000;2024-02-21T03:28:04;2.00;;;1.53;;
6259;SDS011;3163;51.516;4.000;2024-02-21T03:30:30;2.90;;;1.20;;
6259;SDS011;3163;51.516;4.000;2024-02-21T03:32:56;3.17;;;1.20;;
6259;SDS011;3163;51.516;4.000;2024-02-21T03:35:22;2.37;;;1.50;;
6259;SDS011;3163;51.516;4.000;2024-02-21T03:37:51;5.40;;;1.70;;
6259;SDS011;3163;51.516;4.000;2024-02-21T03:40:17;2.03;;;1.30;;
6259;SDS011;3163;51.516;4.000;2024-02-21T03:42:43;2.47;;;1.33;;
6259;SDS011;3163;51.516;4.000;2024-02-21T03:45:09;2.73;;;1.70;;
6259;SDS011;3163;51.516;4.000;2024-02-21T03:47:35;2.00;;;1.10;;
6259;SDS011;3163;51.516;4.000;2024-02-21T03:50:01;2.07;;;1.40;;
6259;SDS011;3163;51.516;4.000;2024-02-21T03:52:27;1.83;;;1.00;;
6259;SDS011;3163;51.516;4.000;2024-02-21T03:54:53;1.50;;;1.40;;
6259;SDS011;3163;51.516;4.000;2024-02-21T03:57:20;5.53;;;1.93;;
6259;SDS011;3163;51.516;4.000;2024-02-21T03:59:46;1.60;;;1.30;;
6259;SDS011;3163;51.516;4.000;2024-02-21T04:02:12;3.60;;;1.90;;
6259;SDS011;3163;51.516;4.000;2024-02-21T04:04:42;4.60;;;1.77;;
6259;SDS011;3163;51.516;4.000;2024-02-21T04:07:08;2.10;;;1.40;;
6259;SDS011;3163;51.516;4.000;2024-02-21T04:09:34;2.13;;;1.80;;
6259;SDS011;3163;51.516;4.000;2024-02-21T04:12:01;3.57;;;2.07;;
6259;SDS011;3163;51.516;4.000;2024-02-21T04:14:27;2.60;;;1.77;;
6259;SDS011;3163;51.516;4.000;2024-02-21T04:16:53;2.30;;;1.70;;
6259;SDS011;3163;51.516;4.000;2024-02-21T04:19:19;4.33;;;1.50;;
6259;SDS011;3163;51.516;4.000;2024-02-21T04:21:45;6.93;;;1.90;;
6259;SDS011;3163;51.516;4.000;2024-02-21T04:24:11;2.93;;;2.00;;
6259;SDS011;3163;51.516;4.000;2024-02-21T04:26:37;3.47;;;1.87;;
6259;SDS011;3163;51.516;4.000;2024-02-21T04:29:04;2.00;;;1.80;;
6259;SDS011;3163;51.516;4.000;2024-02-21T04:31:32;3.00;;;1.83;;
6259;SDS011;3163;51.516;4.000;2024-02-21T04:33:58;2.37;;;1.90;;
6259;SDS011;3163;51.516;4.000;2024-02-21T04:36:24;5.33;;;2.17;;
6259;SDS011;3163;51.516;4.000;2024-02-21T04:38:50;2.70;;;1.83;;
6259;SDS011;3163;51.516;4.000;2024-02-21T04:41:16;4.33;;;1.73;;
6259;SDS011;3163;51.516;4.000;2024-02-21T04:43:42;2.83;;;1.70;;
6259;SDS011;3163;51.516;4.000;2024-02-21T04:46:08;4.97;;;2.00;;
6259;SDS011;3163;51.516;4.000;2024-02-21T04:48:34;4.33;;;1.53;;
6259;SDS011;3163;51.516;4.000;2024-02-21T04:51:00;5.07;;;2.10;;
6259;SDS011;3163;51.516;4.000;2024-02-21T04:53:26;5.63;;;2.10;;
6259;SDS011;3163;51.516;4.000;2024-02-21T04:55:52;3.85;;;2.17;;
6259;SDS011;3163;51.516;4.000;2024-02-21T04:58:18;6.30;;;2.23;;
6259;SDS011;3163;51.516;4.000;2024-02-21T05:00:44;3.50;;;2.47;;
6259;SDS011;3163;51.516;4.000;2024-02-21T05:03:10;5.63;;;2.43;;
6259;SDS011;3163;51.516;4.000;2024-02-21T05:05:36;2.00;;;1.73;;
6259;SDS011;3163;51.516;4.000;2024-02-21T05:08:02;4.50;;;2.10;;
6259;SDS011;3163;51.516;4.000;2024-02-21T05:10:28;8.20;;;3.00;;
6259;SDS011;3163;51.516;4.000;2024-02-21T05:12:54;4.60;;;2.57;;
6259;SDS011;3163;51.516;4.000;2024-02-21T05:15:20;7.70;;;2.23;;
6259;SDS011;3163;51.516;4.000;2024-02-21T05:17:46;3.83;;;2.60;;
6259;SDS011;3163;51.516;4.000;2024-02-21T05:20:12;2.97;;;2.00;;
6259;SDS011;3163;51.516;4.000;2024-02-21T05:22:38;5.77;;;2.27;;
6259;SDS011;3163;51.516;4.000;2024-02-21T05:25:04;4.40;;;2.47;;
6259;SDS011;3163;51.516;4.000;2024-02-21T05:27:31;4.20;;;2.40;;
6259;SDS011;3163;51.516;4.000;2024-02-21T05:29:57;3.67;;;2.10;;
6259;SDS011;3163;51.516;4.000;2024-02-21T05:32:23;4.37;;;2.47;;
6259;SDS011;3163;51.516;4.000;2024-02-21T05:34:49;5.87;;;2.00;;
6259;SDS011;3163;51.516;4.000;2024-02-21T05:37:16;2.67;;;1.80;;
6259;SDS011;3163;51.516;4.000;2024-02-21T05:39:42;3.83;;;2.30;;
6259;SDS011;3163;51.516;4.000;2024-02-21T05:42:08;4.63;;;2.50;;
6259;SDS011;3163;51.516;4.000;2024-02-21T05:44:34;7.27;;;2.23;;
6259;SDS011;3163;51.516;4.000;2024-02-21T05:47:00;2.33;;;2.07;;
6259;SDS011;3163;51.516;4.000;2024-02-21T05:49:26;1.57;;;1.43;;
6259;SDS011;3163;51.516;4.000;2024-02-21T05:51:51;4.70;;;2.57;;
6259;SDS011;3163;51.516;4.000;2024-02-21T05:54:17;8.00;;;2.90;;
6259;SDS011;3163;51.516;4.000;2024-02-21T05:56:44;1.73;;;1.60;;
6259;SDS011;3163;51.516;4.000;2024-02-21T05:59:10;7.27;;;2.93;;
6259;SDS011;3163;51.516;4.000;2024-02-21T06:01:42;5.83;;;2.53;;
6259;SDS011;3163;51.516;4.000;2024-02-21T06:04:09;5.57;;;2.77;;
6259;SDS011;3163;51.516;4.000;2024-02-21T06:06:35;8.17;;;3.67;;
6259;SDS011;3163;51.516;4.000;2024-02-21T06:09:01;5.00;;;2.63;;
6259;SDS011;3163;51.516;4.000;2024-02-21T06:11:28;2.87;;;1.90;;
6259;SDS011;3163;51.516;4.000;2024-02-21T06:13:54;3.67;;;2.00;;
6259;SDS011;3163;51.516;4.000;2024-02-21T06:16:20;2.80;;;2.20;;
6259;SDS011;3163;51.516;4.000;2024-02-21T06:18:46;4.47;;;2.33;;
6259;SDS011;3163;51.516;4.000;2024-02-21T06:21:12;5.13;;;2.33;;
6259;SDS011;3163;51.516;4.000;2024-02-21T06:23:38;4.47;;;2.43;;
6259;SDS011;3163;51.516;4.000;2024-02-21T06:26:04;5.68;;;2.90;;
6259;SDS011;3163;51.516;4.000;2024-02-21T06:28:30;6.73;;;2.87;;
6259;SDS011;3163;51.516;4.000;2024-02-21T06:30:56;5.53;;;3.17;;
6259;SDS011;3163;51.516;4.000;2024-02-21T06:33:22;4.30;;;3.00;;
6259;SDS011;3163;51.516;4.000;2024-02-21T06:35:49;3.83;;;2.80;;
6259;SDS011;3163;51.516;4.000;2024-02-21T06:38:17;6.17;;;2.70;;
6259;SDS011;3163;51.516;4.000;2024-02-21T06:40:44;4.80;;;2.50;;
6259;SDS011;3163;51.516;4.000;2024-02-21T06:43:16;5.07;;;2.03;;
6259;SDS011;3163;51.516;4.000;2024-02-21T06:45:42;4.53;;;2.23;;
6259;SDS011;3163;51.516;4.000;2024-02-21T06:48:12;4.63;;;3.40;;
6259;SDS011;3163;51.516;4.000;2024-02-21T06:50:38;5.47;;;2.60;;
6259;SDS011;3163;51.516;4.000;2024-02-21T06:53:04;5.30;;;3.47;;
6259;SDS011;3163;51.516;4.000;2024-02-21T06:55:30;5.50;;;2.67;;
6259;SDS011;3163;51.516;4.000;2024-02-21T06:57:56;5.13;;;2.47;;
6259;SDS011;3163;51.516;4.000;2024-02-21T07:00:22;7.30;;;2.93;;
6259;SDS011;3163;51.516;4.000;2024-02-21T07:02:48;4.77;;;2.70;;
6259;SDS011;3163;51.516;4.000;2024-02-21T07:05:14;4.83;;;2.87;;
6259;SDS011;3163;51.516;4.000;2024-02-21T07:07:40;3.20;;;2.57;;
6259;SDS011;3163;51.516;4.000;2024-02-21T07:10:06;6.83;;;2.73;;
6259;SDS011;3163;51.516;4.000;2024-02-21T07:12:32;5.13;;;2.93;;
6259;SDS011;3163;51.516;4.000;2024-02-21T07:15:00;4.20;;;2.40;;
6259;SDS011;3163;51.516;4.000;2024-02-21T07:17:26;7.97;;;3.30;;
6259;SDS011;3163;51.516;4.000;2024-02-21T07:19:52;5.03;;;2.80;;
6259;SDS011;3163;51.516;4.000;2024-02-21T07:22:21;5.60;;;3.13;;
6259;SDS011;3163;51.516;4.000;2024-02-21T07:24:47;7.93;;;2.87;;
6259;SDS011;3163;51.516;4.000;2024-02-21T07:27:14;4.00;;;2.70;;
6259;SDS011;3163;51.516;4.000;2024-02-21T07:29:40;7.03;;;3.10;;
6259;SDS011;3163;51.516;4.000;2024-02-21T07:32:06;9.27;;;3.60;;
6259;SDS011;3163;51.516;4.000;2024-02-21T07:34:32;4.20;;;2.87;;
6259;SDS011;3163;51.516;4.000;2024-02-21T07:36:58;5.20;;;2.97;;
6259;SDS011;3163;51.516;4.000;2024-02-21T07:39:24;3.83;;;2.80;;
6259;SDS011;3163;51.516;4.000;2024-02-21T07:41:50;3.83;;;2.77;;
6259;SDS011;3163;51.516;4.000;2024-02-21T07:44:16;3.20;;;2.10;;
6259;SDS011;3163;51.516;4.000;2024-02-21T07:46:42;4.33;;;2.47;;
6259;SDS011;3163;51.516;4.000;2024-02-21T07:49:08;6.57;;;3.90;;
6259;SDS011;3163;51.516;4.000;2024-02-21T07:51:34;4.57;;;2.93;;
6259;SDS011;3163;51.516;4.000;2024-02-21T07:54:01;5.70;;;2.87;;
6259;SDS011;3163;51.516;4.000;2024-02-21T07:56:29;3.50;;;2.92;;
6259;SDS011;3163;51.516;4.000;2024-02-21T07:58:55;3.73;;;2.40;;
6259;SDS011;3163;51.516;4.000;2024-02-21T08:01:21;3.13;;;2.80;;
6259;SDS011;3163;51.516;4.000;2024-02-21T08:03:47;6.30;;;3.27;;
6259;SDS011;3163;51.516;4.000;2024-02-21T08:06:13;5.03;;;2.73;;
6259;SDS011;3163;51.516;4.000;2024-02-21T08:08:39;6.03;;;2.60;;
6259;SDS011;3163;51.516;4.000;2024-02-21T08:11:05;5.17;;;3.00;;
6259;SDS011;3163;51.516;4.000;2024-02-21T08:13:31;3.57;;;2.67;;
6259;SDS011;3163;51.516;4.000;2024-02-21T08:15:57;5.27;;;3.47;;
6259;SDS011;3163;51.516;4.000;2024-02-21T08:18:23;6.37;;;2.50;;
6259;SDS011;3163;51.516;4.000;2024-02-21T08:20:49;3.57;;;2.90;;
6259;SDS011;3163;51.516;4.000;2024-02-21T08:23:18;5.77;;;3.23;;
6259;SDS011;3163;51.516;4.000;2024-02-21T08:25:44;3.90;;;2.97;;
6259;SDS011;3163;51.516;4.000;2024-02-21T08:28:11;4.20;;;2.77;;
6259;SDS011;3163;51.516;4.000;2024-02-21T08:30:38;5.27;;;2.60;;
6259;SDS011;3163;51.516;4.000;2024-02-21T08:33:04;4.10;;;2.73;;
6259;SDS011;3163;51.516;4.000;2024-02-21T08:35:30;6.63;;;3.00;;
6259;SDS011;3163;51.516;4.000;2024-02-21T08:37:56;6.43;;;3.00;;
6259;SDS011;3163;51.516;4.000;2024-02-21T08:40:22;7.17;;;3.20;;
6259;SDS011;3163;51.516;4.000;2024-02-21T08:42:48;3.00;;;2.70;;
6259;SDS011;3163;51.516;4.000;2024-02-21T08:45:14;2.33;;;2.07;;
6259;SDS011;3163;51.516;4.000;2024-02-21T08:47:40;4.40;;;2.67;;
6259;SDS011;3163;51.516;4.000;2024-02-21T08:50:07;4.60;;;3.07;;
6259;SDS011;3163;51.516;4.000;2024-02-21T08:52:35;3.07;;;2.67;;
6259;SDS011;3163;51.516;4.000;2024-02-21T08:55:01;7.20;;;3.20;;
6259;SDS011;3163;51.516;4.000;2024-02-21T08:57:27;4.07;;;2.43;;
6259;SDS011;3163;51.516;4.000;2024-02-21T08:59:53;4.13;;;2.53;;
6259;SDS011;3163;51.516;4.000;2024-02-21T09:02:19;6.17;;;2.80;;
6259;SDS011;3163;51.516;4.000;2024-02-21T09:04:45;5.70;;;2.50;;
6259;SDS011;3163;51.516;4.000;2024-02-21T09:07:11;5.70;;;3.17;;
6259;SDS011;3163;51.516;4.000;2024-02-21T09:09:37;6.33;;;2.97;;
6259;SDS011;3163;51.516;4.000;2024-02-21T09:12:06;2.43;;;2.20;;
6259;SDS011;3163;51.516;4.000;2024-02-21T09:14:32;3.63;;;2.70;;
6259;SDS011;3163;51.516;4.000;2024-02-21T09:16:58;5.23;;;2.87;;
6259;SDS011;3163;51.516;4.000;2024-02-21T09:19:24;2.70;;;2.50;;
6259;SDS011;3163;51.516;4.000;2024-02-21T09:21:50;2.67;;;2.40;;
6259;SDS011;3163;51.516;4.000;2024-02-21T09:24:17;9.20;;;2.40;;
6259;SDS011;3163;51.516;4.000;2024-02-21T09:26:43;4.27;;;2.57;;
6259;SDS011;3163;51.516;4.000;2024-02-21T09:29:09;3.83;;;2.37;;
6259;SDS011;3163;51.516;4.000;2024-02-21T09:31:35;2.77;;;2.57;;
6259;SDS011;3163;51.516;4.000;2024-02-21T09:34:02;3.80;;;3.03;;
6259;SDS011;3163;51.516;4.000;2024-02-21T09:36:28;5.47;;;3.60;;
6259;SDS011;3163;51.516;4.000;2024-02-21T09:38:54;4.97;;;2.90;;
6259;SDS011;3163;51.516;4.000;2024-02-21T09:41:29;3.63;;;2.63;;
6259;SDS011;3163;51.516;4.000;2024-02-21T09:43:55;4.27;;;2.47;;
6259;SDS011;3163;51.516;4.000;2024-02-21T09:46:29;5.53;;;2.53;;
6259;SDS011;3163;51.516;4.000;2024-02-21T09:51:28;2.33;;;2.07;;
6259;SDS011;3163;51.516;4.000;2024-02-21T09:53:57;4.20;;;1.93;;
6259;SDS011;3163;51.516;4.000;2024-02-21T09:56:23;3.67;;;2.30;;
6259;SDS011;3163;51.516;4.000;2024-02-21T09:58:49;5.00;;;2.53;;
6259;SDS011;3163;51.516;4.000;2024-02-21T10:01:15;4.20;;;2.20;;
6259;SDS011;3163;51.516;4.000;2024-02-21T10:03:41;4.33;;;2.80;;
6259;SDS011;3163;51.516;4.000;2024-02-21T10:06:08;3.50;;;2.40;;
6259;SDS011;3163;51.516;4.000;2024-02-21T10:08:34;5.20;;;2.70;;
6259;SDS011;3163;51.516;4.000;2024-02-21T10:11:00;2.77;;;2.57;;
6259;SDS011;3163;51.516;4.000;2024-02-21T10:13:28;4.60;;;3.37;;
6259;SDS011;3163;51.516;4.000;2024-02-21T10:16:01;3.57;;;2.73;;
6259;SDS011;3163;51.516;4.000;2024-02-21T10:18:27;4.50;;;2.70;;
6259;SDS011;3163;51.516;4.000;2024-02-21T10:21:00;6.00;;;3.03;;
6259;SDS011;3163;51.516;4.000;2024-02-21T10:23:26;3.47;;;2.50;;
6259;SDS011;3163;51.516;4.000;2024-02-21T10:25:52;4.30;;;2.40;;
6259;SDS011;3163;51.516;4.000;2024-02-21T10:28:18;3.63;;;2.67;;
6259;SDS011;3163;51.516;4.000;2024-02-21T10:30:51;7.73;;;2.90;;
6259;SDS011;3163;51.516;4.000;2024-02-21T10:33:17;7.30;;;3.00;;
6259;SDS011;3163;51.516;4.000;2024-02-21T10:35:47;6.20;;;3.10;;
6259;SDS011;3163;51.516;4.000;2024-02-21T10:38:14;5.27;;;2.67;;
6259;SDS011;3163;51.516;4.000;2024-02-21T10:40:40;3.80;;;2.63;;
6259;SDS011;3163;51.516;4.000;2024-02-21T10:43:08;2.90;;;2.70;;
6259;SDS011;3163;51.516;4.000;2024-02-21T10:45:36;4.83;;;2.90;;
6259;SDS011;3163;51.516;4.000;2024-02-21T10:48:12;5.30;;;3.50;;
6259;SDS011;3163;51.516;4.000;2024-02-21T10:50:52;4.90;;;2.50;;
6259;SDS011;3163;51.516;4.000;2024-02-21T10:55:50;5.13;;;3.10;;
6259;SDS011;3163;51.516;4.000;2024-02-21T10:58:20;4.80;;;2.50;;
6259;SDS011;3163;51.516;4.000;2024-02-21T11:00:46;4.03;;;2.97;;
6259;SDS011;3163;51.516;4.000;2024-02-21T11:03:12;3.47;;;2.50;;
6259;SDS011;3163;51.516;4.000;2024-02-21T11:05:38;4.00;;;1.90;;
6259;SDS011;3163;51.516;4.000;2024-02-21T11:08:05;4.37;;;2.03;;
6259;SDS011;3163;51.516;4.000;2024-02-21T11:10:31;7.10;;;3.60;;
6259;SDS011;3163;51.516;4.000;2024-02-21T11:13:07;5.67;;;2.73;;
6259;SDS011;3163;51.516;4.000;2024-02-21T11:15:33;5.10;;;2.67;;
6259;SDS011;3163;51.516;4.000;2024-02-21T11:17:59;4.97;;;3.00;;
6259;SDS011;3163;51.516;4.000;2024-02-21T11:20:35;3.83;;;2.87;;
6259;SDS011;3163;51.516;4.000;2024-02-21T11:23:01;4.53;;;3.00;;
6259;SDS011;3163;51.516;4.000;2024-02-21T11:25:27;2.77;;;2.07;;
6259;SDS011;3163;51.516;4.000;2024-02-21T11:28:02;3.83;;;2.60;;
6259;SDS011;3163;51.516;4.000;2024-02-21T11:30:31;4.43;;;3.03;;
6259;SDS011;3163;51.516;4.000;2024-02-21T11:33:01;4.87;;;2.37;;
6259;SDS011;3163;51.516;4.000;2024-02-21T11:35:30;6.43;;;2.30;;
6259;SDS011;3163;51.516;4.000;2024-02-21T11:38:07;5.60;;;3.47;;
6259;SDS011;3163;51.516;4.000;2024-02-21T11:40:34;3.87;;;3.27;;
6259;SDS011;3163;51.516;4.000;2024-02-21T11:43:00;3.23;;;2.87;;
6259;SDS011;3163;51.516;4.000;2024-02-21T11:45:26;5.53;;;3.00;;
6259;SDS011;3163;51.516;4.000;2024-02-21T11:47:52;3.30;;;2.07;;
6259;SDS011;3163;51.516;4.000;2024-02-21T11:50:18;4.27;;;2.33;;
6259;SDS011;3163;51.516;4.000;2024-02-21T11:52:45;4.70;;;3.03;;
6259;SDS011;3163;51.516;4.000;2024-02-21T11:55:11;3.53;;;2.77;;
6259;SDS011;3163;51.516;4.000;2024-02-21T11:57:37;3.03;;;2.60;;
6259;SDS011;3163;51.516;4.000;2024-02-21T12:00:18;4.07;;;2.03;;
6259;SDS011;3163;51.516;4.000;2024-02-21T12:02:45;4.07;;;2.80;;
6259;SDS011;3163;51.516;4.000;2024-02-21T12:05:11;5.07;;;2.87;;
6259;SDS011;3163;51.516;4.000;2024-02-21T12:07:37;3.77;;;2.60;;
6259;SDS011;3163;51.516;4.000;2024-02-21T12:10:10;4.00;;;2.67;;
6259;SDS011;3163;51.516;4.000;2024-02-21T12:12:36;5.43;;;2.80;;
6259;SDS011;3163;51.516;4.000;2024-02-21T12:15:03;6.60;;;2.40;;
6259;SDS011;3163;51.516;4.000;2024-02-21T12:17:39;4.10;;;2.13;;
6259;SDS011;3163;51.516;4.000;2024-02-21T12:20:05;3.40;;;2.17;;
6259;SDS011;3163;51.516;4.000;2024-02-21T12:22:36;3.80;;;2.83;;
6259;SDS011;3163;51.516;4.000;2024-02-21T12:25:15;2.23;;;1.83;;
6259;SDS011;3163;51.516;4.000;2024-02-21T12:27:43;4.77;;;1.90;;
6259;SDS011;3163;51.516;4.000;2024-02-21T12:30:09;4.90;;;2.85;;
6259;SDS011;3163;51.516;4.000;2024-02-21T12:32:35;2.33;;;1.77;;
6259;SDS011;3163;51.516;4.000;2024-02-21T12:35:01;2.47;;;2.13;;
6259;SDS011;3163;51.516;4.000;2024-02-21T12:37:27;2.57;;;2.37;;
6259;SDS011;3163;51.516;4.000;2024-02-21T12:39:54;5.05;;;3.13;;
6259;SDS011;3163;51.516;4.000;2024-02-21T12:42:20;2.90;;;2.13;;
6259;SDS011;3163;51.516;4.000;2024-02-21T12:44:47;3.27;;;2.60;;
6259;SDS011;3163;51.516;4.000;2024-02-21T12:47:13;2.43;;;2.23;;
6259;SDS011;3163;51.516;4.000;2024-02-21T12:49:39;3.77;;;2.10;;
6259;SDS011;3163;51.516;4.000;2024-02-21T12:52:05;4.47;;;2.67;;
6259;SDS011;3163;51.516;4.000;2024-02-21T12:54:31;2.90;;;2.20;;
6259;SDS011;3163;51.516;4.000;2024-02-21T12:56:57;3.10;;;2.40;;
6259;SDS011;3163;51.516;4.000;2024-02-21T12:59:27;2.57;;;2.13;;
6259;SDS011;3163;51.516;4.000;2024-02-21T13:01:53;3.40;;;1.80;;
6259;SDS011;3163;51.516;4.000;2024-02-21T13:04:19;2.50;;;2.30;;
6259;SDS011;3163;51.516;4.000;2024-02-21T13:06:47;2.53;;;2.23;;
6259;SDS011;3163;51.516;4.000;2024-02-21T13:09:14;2.67;;;2.47;;
6259;SDS011;3163;51.516;4.000;2024-02-21T13:11:40;3.37;;;2.47;;
6259;SDS011;3163;51.516;4.000;2024-02-21T13:14:06;4.73;;;2.57;;
6259;SDS011;3163;51.516;4.000;2024-02-21T13:16:32;5.97;;;2.30;;
6259;SDS011;3163;51.516;4.000;2024-02-21T13:19:04;3.30;;;2.67;;
6259;SDS011;3163;51.516;4.000;2024-02-21T13:21:30;4.73;;;2.80;;
6259;SDS011;3163;51.516;4.000;2024-02-21T13:23:56;4.40;;;2.57;;
6259;SDS011;3163;51.516;4.000;2024-02-21T13:26:22;4.50;;;2.40;;
6259;SDS011;3163;51.516;4.000;2024-02-21T13:28:48;4.60;;;2.80;;
6259;SDS011;3163;51.516;4.000;2024-02-21T13:31:14;6.57;;;3.17;;
6259;SDS011;3163;51.516;4.000;2024-02-21T13:33:42;4.00;;;2.97;;
6259;SDS011;3163;51.516;4.000;2024-02-21T13:36:09;5.67;;;2.63;;
6259;SDS011;3163;51.516;4.000;2024-02-21T13:38:35;4.23;;;2.80;;
6259;SDS011;3163;51.516;4.000;2024-02-21T13:41:01;2.67;;;2.47;;
6259;SDS011;3163;51.516;4.000;2024-02-21T13:43:27;3.73;;;1.97;;
6259;SDS011;3163;51.516;4.000;2024-02-21T13:45:57;3.87;;;2.77;;
6259;SDS011;3163;51.516;4.000;2024-02-21T13:48:23;4.27;;;2.73;;
6259;SDS011;3163;51.516;4.000;2024-02-21T13:50:49;4.67;;;2.67;;
6259;SDS011;3163;51.516;4.000;2024-02-21T13:53:16;4.17;;;2.47;;
6259;SDS011;3163;51.516;4.000;2024-02-21T13:55:45;7.33;;;2.70;;
6259;SDS011;3163;51.516;4.000;2024-02-21T13:58:11;3.37;;;1.90;;
6259;SDS011;3163;51.516;4.000;2024-02-21T14:00:37;1.83;;;1.73;;
6259;SDS011;3163;51.516;4.000;2024-02-21T14:03:03;1.87;;;1.77;;
6259;SDS011;3163;51.516;4.000;2024-02-21T14:05:29;3.27;;;2.10;;
6259;SDS011;3163;51.516;4.000;2024-02-21T14:07:55;2.80;;;2.60;;
6259;SDS011;3163;51.516;4.000;2024-02-21T14:10:22;6.57;;;3.00;;
6259;SDS011;3163;51.516;4.000;2024-02-21T14:12:48;3.92;;;2.47;;
6259;SDS011;3163;51.516;4.000;2024-02-21T14:15:14;2.17;;;2.07;;
6259;SDS011;3163;51.516;4.000;2024-02-21T14:17:41;3.67;;;2.10;;
6259;SDS011;3163;51.516;4.000;2024-02-21T14:20:07;3.30;;;2.30;;
6259;SDS011;3163;51.516;4.000;2024-02-21T14:22:34;3.13;;;1.40;;
6259;SDS011;3163;51.516;4.000;2024-02-21T14:25:02;1.80;;;1.43;;
6259;SDS011;3163;51.516;4.000;2024-02-21T14:27:30;2.67;;;2.00;;
6259;SDS011;3163;51.516;4.000;2024-02-21T14:29:56;2.13;;;2.00;;
6259;SDS011;3163;51.516;4.000;2024-02-21T14:32:22;3.63;;;2.00;;
6259;SDS011;3163;51.516;4.000;2024-02-21T14:34:48;3.17;;;1.70;;
6259;SDS011;3163;51.516;4.000;2024-02-21T14:37:14;1.83;;;1.73;;
6259;SDS011;3163;51.516;4.000;2024-02-21T14:39:41;1.63;;;1.53;;
6259;SDS011;3163;51.516;4.000;2024-02-21T14:42:07;2.43;;;1.50;;
6259;SDS011;3163;51.516;4.000;2024-02-21T14:44:35;3.27;;;2.10;;
6259;SDS011;3163;51.516;4.000;2024-02-21T14:47:02;1.73;;;1.63;;
6259;SDS011;3163;51.516;4.000;2024-02-21T14:49:28;3.47;;;2.30;;
6259;SDS011;3163;51.516;4.000;2024-02-21T14:51:54;1.50;;;1.40;;
6259;SDS011;3163;51.516;4.000;2024-02-21T14:54:20;2.73;;;1.87;;
6259;SDS011;3163;51.516;4.000;2024-02-21T14:56:46;3.00;;;1.80;;
6259;SDS011;3163;51.516;4.000;2024-02-21T14:59:12;4.33;;;2.00;;
6259;SDS011;3163;51.516;4.000;2024-02-21T15:01:38;1.57;;;1.43;;
6259;SDS011;3163;51.516;4.000;2024-02-21T15:04:05;2.30;;;1.50;;
6259;SDS011;3163;51.516;4.000;2024-02-21T15:06:31;2.73;;;1.50;;
6259;SDS011;3163;51.516;4.000;2024-02-21T15:08:57;1.50;;;1.40;;
6259;SDS011;3163;51.516;4.000;2024-02-21T15:11:23;2.37;;;1.63;;
6259;SDS011;3163;51.516;4.000;2024-02-21T15:13:49;1.87;;;1.70;;
6259;SDS011;3163;51.516;4.000;2024-02-21T15:16:15;1.70;;;1.23;;